Time;durP1;ratioP1;P1;durP2;ratioP2;P2;SDS_P1;SDS_P2;PMS_P1;PMS_P2;Temp;Humidity;BMP_temperature;BMP_pressure;BME280_temperature;BME280_humidity;BME280_pressure;Samples;Min_cycle;Max_cycle;Signal;HPM_P1;HPM_P2
2022/11/17 00:00:53;;;;;;;2.87;0.70;;;12.50;99.90;;;;;;5014109;28;20156;-83
2022/11/17 00:03:18;;;;;;;1.50;0.90;;;12.40;99.90;;;;;;5014139;28;20253;-83
2022/11/17 00:05:44;;;;;;;1.53;0.90;;;12.50;99.90;;;;;;5015359;28;20603;-82
2022/11/17 00:08:10;;;;;;;1.67;0.80;;;12.60;99.90;;;;;;5014408;28;20167;-82
2022/11/17 00:10:36;;;;;;;1.70;0.70;;;12.60;99.90;;;;;;5014058;28;20594;-82
2022/11/17 00:15:45;;;;;;;2.27;0.80;;;12.60;99.90;;;;;;5014120;28;20663;-82
2022/11/17 00:23:46;;;;;;;3.73;1.20;;;12.40;99.90;;;;;;5013520;28;20228;-81
2022/11/17 00:26:17;;;;;;;2.07;1.00;;;12.40;99.90;;;;;;4995997;28;20210;-82
2022/11/17 00:28:43;;;;;;;4.93;0.80;;;12.50;99.90;;;;;;4996086;28;20252;-82
2022/11/17 00:34:04;;;;;;;5.27;1.37;;;12.40;99.90;;;;;;5021247;28;20197;-87
2022/11/17 00:36:44;;;;;;;5.17;1.80;;;12.50;99.90;;;;;;5021696;28;20538;-86
2022/11/17 00:39:11;;;;;;;5.40;1.50;;;12.40;99.90;;;;;;5020460;28;20163;-86
2022/11/17 00:41:38;;;;;;;3.87;1.30;;;12.40;99.90;;;;;;5019949;28;20166;-88
2022/11/17 00:44:04;;;;;;;6.10;1.33;;;12.40;99.90;;;;;;5021720;28;20178;-89
2022/11/17 00:46:31;;;;;;;5.40;1.40;;;12.40;99.90;;;;;;5032309;28;20172;-87
2022/11/17 00:48:56;;;;;;;5.53;1.70;;;12.50;99.90;;;;;;5029604;28;20204;-88
2022/11/17 00:51:23;;;;;;;5.93;1.47;;;12.50;99.90;;;;;;5010533;28;20171;-85
2022/11/17 00:53:49;;;;;;;5.63;1.57;;;12.50;99.90;;;;;;5031710;28;20240;-87
2022/11/17 00:56:15;;;;;;;7.23;1.73;;;12.50;99.90;;;;;;5028437;28;20175;-88
2022/11/17 00:58:40;;;;;;;4.77;1.77;;;12.60;99.90;;;;;;5017469;28;20171;-88
2022/11/17 01:01:06;;;;;;;5.43;1.70;;;12.60;99.90;;;;;;5001274;28;20654;-86
2022/11/17 01:03:34;;;;;;;6.20;1.67;;;12.60;99.90;;;;;;5001890;28;20643;-89
2022/11/17 01:06:07;;;;;;;8.70;2.00;;;12.70;99.90;;;;;;5018958;28;20535;-86
2022/11/17 01:08:34;;;;;;;9.63;2.10;;;12.70;99.90;;;;;;5001599;28;20173;-87
2022/11/17 01:11:08;;;;;;;5.13;1.83;;;12.70;99.90;;;;;;5018543;28;20184;-88
2022/11/17 01:13:34;;;;;;;5.77;1.47;;;12.70;99.90;;;;;;5003384;28;20178;-88
2022/11/17 01:16:18;;;;;;;6.03;1.70;;;12.70;99.90;;;;;;5002063;28;20225;-86
2022/11/17 01:18:45;;;;;;;6.47;1.90;;;12.70;99.90;;;;;;5018870;28;20978;-88
2022/11/17 01:21:13;;;;;;;7.23;1.90;;;12.70;99.90;;;;;;5003790;28;20201;-89
2022/11/17 01:23:41;;;;;;;4.93;1.90;;;12.80;99.90;;;;;;5020431;28;20178;-88
2022/11/17 01:26:13;;;;;;;7.00;1.93;;;12.70;99.90;;;;;;5018627;28;20243;-89
2022/11/17 01:28:42;;;;;;;6.43;2.00;;;12.80;99.90;;;;;;5016510;28;20249;-87
2022/11/17 01:31:12;;;;;;;5.07;1.63;;;12.80;99.90;;;;;;5020062;28;20182;-86
2022/11/17 01:33:38;;;;;;;6.03;2.00;;;13.00;99.90;;;;;;5026519;28;20167;-88
2022/11/17 01:36:07;;;;;;;7.10;1.90;;;12.80;99.90;;;;;;5016370;28;20172;-87
2022/11/17 01:38:33;;;;;;;6.37;1.87;;;12.80;99.90;;;;;;5016332;28;20574;-86
2022/11/17 01:41:00;;;;;;;6.53;1.90;;;12.90;99.90;;;;;;5017745;28;20271;-87
2022/11/17 01:43:41;;;;;;;5.83;1.80;;;12.90;99.90;;;;;;5016856;28;20274;-87
2022/11/17 01:46:13;;;;;;;9.90;1.87;;;12.70;99.90;;;;;;4998741;28;20203;-87
2022/11/17 01:48:40;;;;;;;6.10;1.80;;;12.80;99.90;;;;;;4999852;28;20187;-88
2022/11/17 01:51:06;;;;;;;4.73;1.80;;;12.80;99.90;;;;;;4999756;28;20323;-88
2022/11/17 01:53:33;;;;;;;6.23;2.10;;;12.80;99.90;;;;;;5024023;28;20186;-88
2022/11/17 01:56:05;;;;;;;8.87;2.33;;;12.70;99.90;;;;;;5022531;28;20192;-86
2022/11/17 01:58:35;;;;;;;9.83;2.70;;;12.70;99.90;;;;;;5023050;28;20162;-85
2022/11/17 02:01:01;;;;;;;8.87;2.40;;;12.80;99.90;;;;;;5038808;28;20149;-81
2022/11/17 02:03:31;;;;;;;8.00;2.43;;;12.80;99.90;;;;;;5028805;28;20177;-87
2022/11/17 02:06:04;;;;;;;7.23;2.10;;;12.90;99.90;;;;;;5009679;28;20214;-86
2022/11/17 02:08:34;;;;;;;9.33;2.40;;;12.80;99.90;;;;;;5019595;28;20660;-82
2022/11/17 02:11:02;;;;;;;9.47;2.40;;;12.90;99.90;;;;;;4997882;28;20194;-82
2022/11/17 02:13:29;;;;;;;7.80;2.17;;;12.80;99.90;;;;;;5016381;28;20204;-88
2022/11/17 02:15:54;;;;;;;7.07;2.53;;;12.80;99.90;;;;;;5016407;28;20176;-85
2022/11/17 02:18:20;;;;;;;7.23;2.40;;;12.80;99.90;;;;;;4999258;28;20179;-87
2022/11/17 02:21:18;;;;;;;8.50;1.83;;;12.80;99.90;;;;;;5015657;28;20571;-87
2022/11/17 02:24:02;;;;;;;5.17;1.50;;;12.80;99.90;;;;;;5015565;28;20215;-84
2022/11/17 02:26:46;;;;;;;9.70;2.20;;;12.90;99.90;;;;;;5017826;28;20193;-81
2022/11/17 02:29:36;;;;;;;6.57;1.90;;;13.00;99.90;;;;;;5001177;28;20222;-84
2022/11/17 02:32:09;;;;;;;5.43;1.43;;;12.90;99.90;;;;;;5020522;28;20176;-81
2022/11/17 02:34:56;;;;;;;7.73;1.73;;;12.80;99.90;;;;;;5038326;28;20152;-82
2022/11/17 02:37:39;;;;;;;6.50;1.67;;;12.80;99.90;;;;;;5038817;28;20194;-83
2022/11/17 02:40:12;;;;;;;6.97;1.70;;;12.90;99.90;;;;;;5022272;28;20170;-83
2022/11/17 02:46:38;;;;;;;6.57;1.67;;;12.80;99.90;;;;;;5031170;28;20209;-86
2022/11/17 02:49:12;;;;;;;7.70;1.83;;;12.70;99.90;;;;;;4958530;28;20246;-82
2022/11/17 02:51:39;;;;;;;5.87;1.90;;;12.60;99.90;;;;;;4957466;28;20527;-84
2022/11/17 02:54:06;;;;;;;5.83;1.63;;;12.60;99.90;;;;;;4979701;28;20186;-82
2022/11/17 02:56:32;;;;;;;5.53;2.07;;;12.70;99.90;;;;;;5014127;28;20188;-82
2022/11/17 02:59:01;;;;;;;6.07;1.77;;;12.80;99.90;;;;;;5013194;28;20637;-81
2022/11/17 03:01:38;;;;;;;7.17;2.20;;;12.70;99.90;;;;;;5014229;28;20176;-84
2022/11/17 03:04:23;;;;;;;7.83;2.13;;;12.70;99.90;;;;;;5015105;28;20666;-89
2022/11/17 03:07:18;;;;;;;10.13;1.90;;;12.60;99.90;;;;;;5000765;28;20179;-87
2022/11/17 03:09:53;;;;;;;6.33;1.97;;;12.60;99.90;;;;;;5018325;28;20189;-86
2022/11/17 03:12:45;;;;;;;8.17;2.53;;;12.60;99.90;;;;;;4999109;28;20184;-81
2022/11/17 03:15:27;;;;;;;6.70;2.10;;;12.40;99.90;;;;;;5009819;28;20186;-84
2022/11/17 03:18:03;;;;;;;8.17;1.90;;;12.30;99.90;;;;;;5014227;28;20207;-81
2022/11/17 03:20:56;;;;;;;7.43;1.97;;;12.40;99.90;;;;;;4996375;28;20745;-80
2022/11/17 03:23:37;;;;;;;7.20;1.60;;;12.30;99.90;;;;;;4998335;28;20186;-85
2022/11/17 03:26:09;;;;;;;7.23;1.67;;;12.30;99.90;;;;;;5018011;28;20256;-88
2022/11/17 03:28:36;;;;;;;6.27;1.57;;;12.30;99.90;;;;;;5014990;28;20172;-82
2022/11/17 03:31:05;;;;;;;5.03;1.50;;;12.30;99.90;;;;;;5014038;28;20251;-82
2022/11/17 03:33:36;;;;;;;3.57;1.57;;;12.20;99.90;;;;;;4997750;28;20203;-86
2022/11/17 03:36:12;;;;;;;4.30;1.50;;;12.20;99.90;;;;;;5016012;28;20170;-85
2022/11/17 03:38:46;;;;;;;6.43;1.80;;;12.10;99.90;;;;;;4998980;28;20484;-82
2022/11/17 03:41:14;;;;;;;6.13;1.60;;;12.20;99.90;;;;;;5012918;28;20647;-82
2022/11/17 03:43:43;;;;;;;6.60;1.90;;;12.20;99.90;;;;;;4997566;28;20651;-80
2022/11/17 03:46:15;;;;;;;5.23;1.90;;;12.30;99.90;;;;;;5018610;28;20214;-82
2022/11/17 03:49:08;;;;;;;7.43;2.20;;;12.20;99.90;;;;;;5015824;28;20194;-87
2022/11/17 03:51:34;;;;;;;4.67;1.70;;;12.20;99.90;;;;;;4999708;28;20186;-87
2022/11/17 03:54:01;;;;;;;6.40;1.70;;;12.20;99.90;;;;;;5017354;28;20222;-87
2022/11/17 03:56:35;;;;;;;5.83;1.47;;;12.20;99.90;;;;;;5017103;28;20271;-89
2022/11/17 03:59:10;;;;;;;6.17;1.87;;;12.30;99.90;;;;;;5017389;28;20184;-88
2022/11/17 04:01:36;;;;;;;7.87;1.60;;;12.30;99.90;;;;;;5016163;28;20166;-87
2022/11/17 04:04:02;;;;;;;5.40;1.67;;;12.30;99.90;;;;;;5019636;28;20174;-89
2022/11/17 04:06:28;;;;;;;6.03;1.80;;;12.40;99.90;;;;;;5017340;28;20697;-90
2022/11/17 04:08:53;;;;;;;6.53;1.87;;;12.40;99.90;;;;;;5032936;28;20170;-86
2022/11/17 04:16:48;;;;;;;8.63;1.90;;;12.50;99.90;;;;;;5040801;28;20201;-86
2022/11/17 04:19:13;;;;;;;9.50;2.03;;;12.40;99.90;;;;;;5033814;28;20155;-87
2022/11/17 04:21:42;;;;;;;8.47;1.90;;;12.40;99.90;;;;;;5023162;28;20194;-86
2022/11/17 04:24:08;;;;;;;7.97;1.87;;;12.30;99.90;;;;;;5040039;28;20198;-87
2022/11/17 04:29:19;;;;;;;5.23;1.80;;;12.40;99.90;;;;;;5040808;28;20173;-85
2022/11/17 04:31:45;;;;;;;6.33;1.67;;;12.30;99.90;;;;;;5040898;28;20173;-86
2022/11/17 04:34:11;;;;;;;5.87;1.90;;;12.40;99.90;;;;;;5021622;28;20159;-85
2022/11/17 04:36:42;;;;;;;4.80;1.40;;;12.30;99.90;;;;;;5039403;28;20186;-86
2022/11/17 04:39:08;;;;;;;6.87;1.83;;;12.30;99.90;;;;;;5036619;28;20175;-86
2022/11/17 04:41:52;;;;;;;5.53;1.40;;;12.30;99.00;;;;;;5040499;28;20198;-85
2022/11/17 04:44:23;;;;;;;5.07;1.43;;;12.30;98.00;;;;;;5022066;28;20250;-84
2022/11/17 04:46:49;;;;;;;6.37;1.83;;;12.30;97.10;;;;;;5033129;28;20178;-81
2022/11/17 04:49:18;;;;;;;7.40;2.03;;;12.30;96.50;;;;;;5031350;28;20282;-90
2022/11/17 04:52:20;;;;;;;6.73;2.00;;;12.30;97.10;;;;;;5025631;28;20166;-81
2022/11/17 04:55:09;;;;;;;5.90;1.93;;;12.20;98.50;;;;;;5022760;28;20184;-83
2022/11/17 04:57:39;;;;;;;6.40;1.20;;;12.10;99.90;;;;;;5022656;28;20178;-82
2022/11/17 05:00:13;;;;;;;3.67;1.00;;;12.00;99.90;;;;;;5025366;28;20170;-85
2022/11/17 05:02:38;;;;;;;3.03;1.17;;;11.90;99.90;;;;;;5022932;28;20166;-81
2022/11/17 05:05:05;;;;;;;3.67;1.20;;;11.80;99.90;;;;;;5038371;28;20462;-88
2022/11/17 05:07:31;;;;;;;4.63;0.90;;;11.70;99.90;;;;;;5022187;28;20177;-87
2022/11/17 05:09:57;;;;;;;4.17;0.87;;;11.70;99.90;;;;;;5040696;28;20170;-83
2022/11/17 05:17:03;;;;;;;3.13;0.73;;;11.80;99.90;;;;;;5039939;28;20162;-81
2022/11/17 05:18:06;;;;;;;2.93;1.17;;;11.60;99.90;;;;;;5038853;28;20167;-81
2022/11/17 05:20:32;;;;;;;2.83;1.20;;;11.60;99.90;;;;;;5040453;28;20236;-85
2022/11/17 05:25:42;;;;;;;3.20;1.37;;;11.60;99.90;;;;;;5030014;28;20205;-82
2022/11/17 05:28:23;;;;;;;5.03;1.30;;;11.50;99.90;;;;;;5018522;28;20166;-84
2022/11/17 05:30:50;;;;;;;3.33;1.27;;;11.50;99.90;;;;;;5018740;28;20762;-82
2022/11/17 05:33:17;;;;;;;3.73;1.00;;;11.50;99.90;;;;;;5023842;28;20170;-88
2022/11/17 05:35:43;;;;;;;2.27;0.83;;;11.50;99.90;;;;;;5029131;28;20182;-84
2022/11/17 05:38:08;;;;;;;5.00;1.17;;;11.40;99.90;;;;;;5034824;28;20213;-86
2022/11/17 05:40:34;;;;;;;5.50;1.70;;;11.40;99.90;;;;;;5033482;28;20170;-87
2022/11/17 05:43:03;;;;;;;4.23;1.10;;;11.30;99.90;;;;;;5013203;28;20222;-89
2022/11/17 05:45:30;;;;;;;3.00;0.83;;;11.40;99.90;;;;;;5000720;28;20214;-88
2022/11/17 05:47:57;;;;;;;3.27;0.93;;;11.40;99.90;;;;;;5019433;28;20178;-87
2022/11/17 05:50:23;;;;;;;3.33;1.10;;;11.50;99.90;;;;;;5017116;28;20244;-89
2022/11/17 05:52:49;;;;;;;3.13;1.10;;;11.40;99.90;;;;;;5003569;28;20170;-82
2022/11/17 05:55:15;;;;;;;4.20;1.20;;;11.40;99.90;;;;;;5001872;28;20170;-82
2022/11/17 05:57:41;;;;;;;1.73;0.93;;;11.40;99.90;;;;;;5001248;28;20177;-82
2022/11/17 06:00:07;;;;;;;3.33;1.07;;;11.50;99.90;;;;;;5015972;28;20178;-82
2022/11/17 06:02:59;;;;;;;1.67;0.90;;;11.30;99.90;;;;;;5015677;28;20190;-82
2022/11/17 06:05:37;;;;;;;2.77;0.90;;;11.30;99.90;;;;;;5021691;28;20231;-81
2022/11/17 06:08:30;;;;;;;3.20;1.10;;;11.30;99.90;;;;;;5029317;28;20183;-81
2022/11/17 06:11:04;;;;;;;2.33;1.10;;;11.30;99.90;;;;;;5014011;28;20205;-80
2022/11/17 06:13:31;;;;;;;3.37;0.80;;;11.30;99.90;;;;;;5032895;28;20170;-81
2022/11/17 06:16:01;;;;;;;3.67;1.00;;;11.30;99.90;;;;;;5013001;28;20186;-82
2022/11/17 06:18:43;;;;;;;4.63;1.00;;;11.20;99.90;;;;;;5011804;28;20174;-82
2022/11/17 06:21:10;;;;;;;2.70;0.80;;;11.30;99.90;;;;;;5026469;28;20190;-83
2022/11/17 06:23:37;;;;;;;2.90;0.80;;;11.30;99.90;;;;;;4997848;28;20202;-81
2022/11/17 06:26:06;;;;;;;3.27;0.90;;;11.30;99.90;;;;;;4997671;28;20300;-81
2022/11/17 06:28:33;;;;;;;3.97;1.00;;;11.40;99.90;;;;;;5014987;28;20295;-83
2022/11/17 06:31:00;;;;;;;5.20;1.10;;;11.30;99.90;;;;;;5015636;28;20174;-83
2022/11/17 06:33:36;;;;;;;2.63;1.00;;;11.20;99.90;;;;;;4997493;28;20166;-82
2022/11/17 06:36:05;;;;;;;5.37;1.20;;;11.40;99.90;;;;;;4999275;28;20196;-82
2022/11/17 06:38:32;;;;;;;3.80;1.20;;;11.30;99.90;;;;;;4998355;28;20212;-82
2022/11/17 06:40:59;;;;;;;2.43;0.90;;;11.40;99.90;;;;;;5013927;28;20174;-82
2022/11/17 06:43:26;;;;;;;2.87;1.10;;;11.50;99.90;;;;;;5013635;28;20194;-83
2022/11/17 06:45:52;;;;;;;2.47;0.90;;;11.40;99.90;;;;;;5000695;28;20724;-84
2022/11/17 06:48:25;;;;;;;4.50;1.03;;;11.40;99.90;;;;;;4999649;28;20269;-84
2022/11/17 06:50:52;;;;;;;3.10;0.90;;;11.40;99.20;;;;;;5014346;28;20225;-84
2022/11/17 06:53:17;;;;;;;6.07;1.17;;;11.40;98.70;;;;;;5014118;28;20704;-84
2022/11/17 06:55:48;;;;;;;4.70;1.00;;;11.50;99.60;;;;;;5013521;28;20182;-83
2022/11/17 06:58:14;;;;;;;4.03;0.90;;;11.40;99.10;;;;;;5013848;28;20174;-82
2022/11/17 07:00:40;;;;;;;2.43;1.00;;;11.50;98.60;;;;;;4997234;28;20197;-84
2022/11/17 07:03:08;;;;;;;3.63;1.20;;;11.40;99.00;;;;;;4997517;28;20174;-82
2022/11/17 07:05:36;;;;;;;3.17;1.00;;;11.40;99.50;;;;;;5013907;28;20592;-85
2022/11/17 07:08:05;;;;;;;3.53;0.87;;;11.50;99.30;;;;;;5036542;28;20189;-87
2022/11/17 07:10:32;;;;;;;4.77;0.97;;;11.40;98.70;;;;;;5015075;28;20178;-86
2022/11/17 07:12:58;;;;;;;1.60;0.80;;;11.40;97.70;;;;;;5014880;28;20182;-87
2022/11/17 07:15:24;;;;;;;4.43;1.10;;;11.40;96.50;;;;;;5034475;28;20188;-82
2022/11/17 07:17:50;;;;;;;4.47;1.27;;;11.40;96.70;;;;;;5014823;28;20215;-85
2022/11/17 07:20:19;;;;;;;3.40;0.90;;;11.50;96.20;;;;;;5018140;28;20185;-80
2022/11/17 07:22:46;;;;;;;4.87;1.10;;;11.50;95.50;;;;;;5044458;28;20683;-83
2022/11/17 07:25:11;;;;;;;3.80;0.80;;;11.50;95.00;;;;;;5027905;28;20235;-82
2022/11/17 07:27:37;;;;;;;1.63;0.80;;;11.50;95.40;;;;;;5019700;28;20205;-86
2022/11/17 07:30:05;;;;;;;3.10;0.93;;;11.40;95.40;;;;;;5022268;28;20627;-86
2022/11/17 07:32:34;;;;;;;2.27;0.60;;;11.40;96.10;;;;;;5004281;28;20229;-86
2022/11/17 07:35:04;;;;;;;3.63;1.10;;;11.50;96.20;;;;;;5037118;28;20169;-85
2022/11/17 07:37:45;;;;;;;3.30;1.03;;;11.50;96.10;;;;;;5041835;28;20177;-83
2022/11/17 07:40:11;;;;;;;5.27;1.13;;;11.40;95.80;;;;;;5039672;28;20589;-89
2022/11/17 07:42:37;;;;;;;6.03;0.80;;;11.40;96.20;;;;;;5022564;28;20220;-86
2022/11/17 07:45:03;;;;;;;3.73;1.17;;;11.40;95.50;;;;;;5040186;28;20701;-86
2022/11/17 07:47:28;;;;;;;5.63;1.97;;;11.40;95.70;;;;;;5022924;28;20178;-86
2022/11/17 07:49:54;;;;;;;4.67;1.00;;;11.40;94.90;;;;;;5019979;28;20190;-84
2022/11/17 07:52:20;;;;;;;2.67;1.10;;;11.40;94.70;;;;;;5029169;28;20158;-84
2022/11/17 07:54:49;;;;;;;3.67;1.03;;;11.50;93.90;;;;;;5033870;28;20184;-84
2022/11/17 07:57:53;;;;;;;3.03;0.80;;;11.50;93.40;;;;;;5040287;28;20230;-85
2022/11/17 08:03:44;;;;;;;4.20;0.90;;;11.30;94.20;;;;;;5055942;28;20206;-81
2022/11/17 08:06:59;;;;;;;1.97;0.70;;;11.40;93.90;;;;;;5054396;28;20213;-86
2022/11/17 08:12:46;;;;;;;2.93;1.07;;;11.40;93.50;;;;;;5374316;22;20222;-82
2022/11/17 08:16:20;;;;;;;;;;;;;;;;;;;;;
2022/11/17 08:24:36;;;;;;;2.00;1.00;;;11.40;93.60;;;;;;5128085;22;20241;-83
2022/11/17 08:33:19;;;;;;;3.40;0.80;;;11.50;92.70;;;;;;5017605;28;20162;-85
2022/11/17 08:36:06;;;;;;;4.90;1.20;;;11.50;91.10;;;;;;4994208;28;20171;-88
2022/11/17 08:38:46;;;;;;;5.30;2.07;;;11.50;91.60;;;;;;5013925;28;20188;-87
2022/11/17 08:41:11;;;;;;;4.57;0.90;;;11.60;91.20;;;;;;5011076;28;20162;-88
2022/11/17 08:44:11;;;;;;;3.63;1.67;;;11.60;91.60;;;;;;4993944;28;20706;-87
2022/11/17 08:47:03;;;;;;;9.17;1.20;;;11.60;91.00;;;;;;5011197;28;20183;-88
2022/11/17 08:49:46;;;;;;;4.60;1.00;;;11.70;89.00;;;;;;4988736;28;20636;-88
2022/11/17 08:52:13;;;;;;;1.70;0.90;;;11.70;88.80;;;;;;4990432;28;20283;-88
2022/11/17 08:54:46;;;;;;;3.70;1.30;;;11.80;90.00;;;;;;4977431;28;20195;-85
2022/11/17 08:57:20;;;;;;;5.10;0.83;;;11.80;88.60;;;;;;4997486;28;20231;-82
2022/11/17 08:59:47;;;;;;;5.07;2.00;;;11.70;89.40;;;;;;4981148;28;20191;-86
2022/11/17 09:02:39;;;;;;;4.00;1.20;;;11.70;90.50;;;;;;4980979;28;20188;-87
2022/11/17 09:05:11;;;;;;;3.53;1.20;;;11.70;91.20;;;;;;4992946;28;20261;-86
2022/11/17 09:07:52;;;;;;;5.93;1.47;;;11.60;92.20;;;;;;4988474;28;20191;-89
2022/11/17 09:10:57;;;;;;;3.40;0.83;;;11.60;92.90;;;;;;4952899;28;20220;-88
2022/11/17 09:13:29;;;;;;;4.03;1.10;;;11.70;92.70;;;;;;4976752;28;20176;-88
2022/11/17 09:16:00;;;;;;;4.47;1.10;;;11.70;92.20;;;;;;4991191;28;20195;-88
2022/11/17 09:18:26;;;;;;;5.33;1.10;;;11.70;92.20;;;;;;4965716;28;20267;-88
2022/11/17 09:20:52;;;;;;;3.17;0.97;;;11.70;92.30;;;;;;4979454;28;20207;-88
2022/11/17 09:23:18;;;;;;;4.53;1.20;;;11.80;91.90;;;;;;4979278;28;20580;-87
2022/11/17 09:25:43;;;;;;;2.77;1.03;;;11.70;90.70;;;;;;4979183;28;20207;-88
2022/11/17 09:28:09;;;;;;;4.83;1.17;;;11.80;90.00;;;;;;4987831;28;20179;-87
2022/11/17 09:30:35;;;;;;;3.77;1.60;;;11.90;89.70;;;;;;4987507;28;20226;-87
2022/11/17 09:33:01;;;;;;;4.13;1.47;;;11.90;88.00;;;;;;4989235;28;20266;-87
2022/11/17 09:35:27;;;;;;;5.00;1.17;;;11.90;84.00;;;;;;4962758;28;20231;-89
2022/11/17 09:37:58;;;;;;;3.27;1.23;;;12.00;83.10;;;;;;4979086;28;20246;-88
2022/11/17 09:40:23;;;;;;;4.30;1.00;;;12.10;83.80;;;;;;4980122;28;20662;-87
2022/11/17 09:42:49;;;;;;;7.27;1.40;;;12.20;80.70;;;;;;4962866;28;20284;-88
2022/11/17 09:45:31;;;;;;;3.17;0.90;;;12.20;80.70;;;;;;4979918;28;20595;-88
2022/11/17 09:48:23;;;;;;;4.63;1.07;;;12.20;82.50;;;;;;4970919;28;20200;-88
2022/11/17 09:50:54;;;;;;;5.37;1.43;;;12.10;85.50;;;;;;4988443;28;20194;-86
2022/11/17 09:53:43;;;;;;;4.37;1.43;;;12.00;88.30;;;;;;4983880;28;20188;-85
2022/11/17 09:56:11;;;;;;;5.17;2.23;;;12.00;88.90;;;;;;4997725;28;20175;-88
2022/11/17 09:58:51;;;;;;;5.00;1.37;;;12.10;89.40;;;;;;4989660;28;20183;-81
2022/11/17 10:01:19;;;;;;;4.00;1.17;;;12.10;88.70;;;;;;4976789;28;20164;-81
2022/11/17 10:03:50;;;;;;;6.13;1.20;;;12.10;84.90;;;;;;4958469;28;20210;-83
2022/11/17 10:06:20;;;;;;;4.57;1.13;;;12.20;81.10;;;;;;4975217;28;20212;-82
2022/11/17 10:08:57;;;;;;;3.67;1.40;;;12.20;81.50;;;;;;4976175;28;20172;-84
2022/11/17 10:11:31;;;;;;;5.37;1.50;;;12.20;90.00;;;;;;4976379;28;20179;-81
2022/11/17 10:14:15;;;;;;;1.87;0.77;;;12.10;92.40;;;;;;4959676;28;20178;-81
2022/11/17 10:17:01;;;;;;;3.30;1.10;;;12.00;93.40;;;;;;4969512;28;20172;-82
2022/11/17 10:19:35;;;;;;;4.63;1.67;;;11.90;95.50;;;;;;4987284;28;20171;-83
2022/11/17 10:22:06;;;;;;;3.73;1.23;;;11.90;97.10;;;;;;4988127;28;20211;-83
2022/11/17 10:24:36;;;;;;;4.90;1.50;;;11.90;98.00;;;;;;4972127;28;20171;-83
2022/11/17 10:27:04;;;;;;;4.50;1.10;;;11.90;97.40;;;;;;4962715;28;20184;-87
2022/11/17 10:29:33;;;;;;;5.70;1.10;;;11.90;97.40;;;;;;4994773;28;20203;-85
2022/11/17 10:32:21;;;;;;;5.47;1.57;;;11.80;97.70;;;;;;4986756;28;20258;-88
2022/11/17 10:34:48;;;;;;;2.77;1.00;;;11.80;98.00;;;;;;4970270;28;20210;-87
2022/11/17 10:37:34;;;;;;;6.97;1.40;;;11.80;97.90;;;;;;5491712;23;20307;-87
2022/11/17 10:40:21;;;;;;;4.23;1.07;;;11.90;98.50;;;;;;4989334;28;20179;-86
2022/11/17 10:43:04;;;;;;;6.80;1.07;;;11.80;99.10;;;;;;4990960;28;20183;-85
2022/11/17 10:45:51;;;;;;;5.40;1.50;;;11.60;99.60;;;;;;4988588;28;20196;-87
2022/11/17 10:48:30;;;;;;;5.13;1.30;;;11.60;99.90;;;;;;4970078;28;20226;-87
2022/11/17 10:51:20;;;;;;;3.67;1.70;;;11.80;99.90;;;;;;4994848;28;20214;-87
2022/11/17 10:54:24;;;;;;;4.77;1.70;;;11.80;99.70;;;;;;4994744;28;20203;-85
2022/11/17 11:03:33;;;;;;;2.80;1.20;;;12.10;94.00;;;;;;5071594;23;20237;-87
2022/11/17 11:06:26;;;;;;;3.90;1.10;;;12.20;91.50;;;;;;5016222;28;20247;-84
2022/11/17 11:12:58;;;;;;;;;;;;;;;;;;;;;
2022/11/17 11:24:03;;;;;;;6.37;1.20;;;12.60;74.60;;;;;;5056639;28;20198;-83
2022/11/17 11:32:43;;;;;;;3.53;1.20;;;12.70;66.30;;;;;;5068645;22;20230;-87
2022/11/17 11:42:41;;;;;;;3.10;0.77;;;12.80;68.60;;;;;;5037904;28;20193;-81
2022/11/17 11:45:55;;;;;;;3.40;1.10;;;12.80;69.60;;;;;;5027477;28;20237;-82
2022/11/17 11:49:03;;;;;;;3.33;0.80;;;12.70;72.60;;;;;;5035805;28;20213;-84
2022/11/17 11:51:50;;;;;;;2.40;1.20;;;12.80;73.80;;;;;;5174367;22;20467;-87
2022/11/17 11:55:09;;;;;;;5.00;1.20;;;13.00;71.50;;;;;;5013180;28;20185;-87
2022/11/17 11:58:21;;;;;;;5.00;1.30;;;13.00;70.60;;;;;;5021673;28;20167;-86
2022/11/17 12:01:54;;;;;;;5.60;1.40;;;13.20;65.60;;;;;;5021457;28;20156;-87
2022/11/17 12:05:08;;;;;;;5.80;1.47;;;13.10;63.40;;;;;;5350113;22;20222;-82
2022/11/17 12:10:36;;;;;;;3.60;1.10;;;13.00;66.50;;;;;;5261504;23;20218;-83
2022/11/17 12:13:23;;;;;;;3.17;1.20;;;13.00;66.70;;;;;;5007538;28;20167;-87
2022/11/17 12:15:49;;;;;;;2.77;1.20;;;13.20;62.90;;;;;;5026030;28;20182;-87
2022/11/17 12:18:35;;;;;;;3.43;0.80;;;13.00;63.60;;;;;;5009916;28;20175;-88
2022/11/17 12:21:21;;;;;;;2.33;0.77;;;13.10;64.80;;;;;;5011780;28;20182;-88
2022/11/17 12:24:15;;;;;;;2.57;0.90;;;13.00;63.80;;;;;;5030962;28;20177;-86
2022/11/17 12:27:14;;;;;;;2.37;0.97;;;13.00;65.00;;;;;;5036400;28;20225;-84
2022/11/17 12:30:05;;;;;;;2.17;0.97;;;12.90;67.20;;;;;;5026612;28;20159;-89
2022/11/17 12:32:52;;;;;;;3.57;0.77;;;12.90;65.40;;;;;;5018011;28;20171;-87
2022/11/17 12:35:39;;;;;;;1.77;0.90;;;13.00;68.40;;;;;;5006012;28;20263;-82
2022/11/17 12:38:20;;;;;;;3.17;0.80;;;13.00;66.60;;;;;;5031671;28;20163;-83
2022/11/17 12:40:53;;;;;;;4.27;0.87;;;12.80;67.70;;;;;;5011543;28;20164;-83
2022/11/17 12:43:44;;;;;;;3.47;1.10;;;12.80;67.20;;;;;;5022842;28;20202;-82
2022/11/17 12:46:29;;;;;;;1.97;0.80;;;12.80;69.50;;;;;;5025291;28;20225;-84
2022/11/17 12:49:21;;;;;;;4.23;0.90;;;12.70;71.80;;;;;;5009224;28;20170;-83
2022/11/17 12:52:05;;;;;;;4.97;1.10;;;12.70;75.00;;;;;;5006672;28;20647;-81
2022/11/17 12:54:46;;;;;;;2.20;1.13;;;12.70;75.40;;;;;;5005792;28;20175;-81
2022/11/17 12:57:29;;;;;;;4.90;1.30;;;12.70;75.00;;;;;;5015103;28;20236;-82
2022/11/17 13:00:19;;;;;;;2.40;0.97;;;12.80;73.50;;;;;;5022647;28;20174;-83
2022/11/17 13:03:10;;;;;;;3.03;1.20;;;12.80;72.60;;;;;;5028268;28;20181;-83
2022/11/17 13:06:26;;;;;;;3.13;1.07;;;12.90;69.10;;;;;;5035544;28;20216;-81
2022/11/17 13:09:00;;;;;;;2.80;1.10;;;13.00;68.90;;;;;;5013450;28;20199;-83
2022/11/17 13:11:32;;;;;;;1.70;0.90;;;13.00;65.10;;;;;;5033894;28;20158;-81
2022/11/17 13:14:22;;;;;;;4.23;0.93;;;13.10;61.50;;;;;;5015484;28;20234;-82
2022/11/17 13:16:49;;;;;;;1.77;0.90;;;13.00;58.70;;;;;;5026080;28;20225;-82
2022/11/17 13:19:31;;;;;;;1.73;0.90;;;13.10;56.70;;;;;;5005910;28;20197;-81
2022/11/17 13:22:15;;;;;;;4.70;1.00;;;13.00;58.10;;;;;;5021661;28;20162;-81
2022/11/17 13:24:46;;;;;;;3.33;1.07;;;13.00;58.40;;;;;;5018866;28;20252;-83
2022/11/17 13:27:42;;;;;;;2.93;0.80;;;13.00;59.70;;;;;;5012938;28;20638;-81
2022/11/17 13:30:30;;;;;;;3.20;0.80;;;13.00;62.20;;;;;;5032861;28;20171;-83
2022/11/17 13:33:18;;;;;;;1.97;0.87;;;13.00;62.90;;;;;;5031980;28;20227;-82
2022/11/17 13:36:04;;;;;;;2.90;1.23;;;13.10;62.10;;;;;;5015148;28;20167;-82
2022/11/17 13:39:21;;;;;;;3.47;0.97;;;13.20;60.60;;;;;;5000050;28;20210;-86
2022/11/17 13:42:05;;;;;;;4.40;1.43;;;13.20;62.70;;;;;;5020043;28;20156;-85
2022/11/17 13:44:47;;;;;;;3.97;0.90;;;13.10;66.10;;;;;;5023319;28;20178;-86
2022/11/17 13:47:42;;;;;;;2.37;1.07;;;13.00;65.20;;;;;;5023190;28;20194;-87
2022/11/17 13:50:46;;;;;;;2.23;0.90;;;13.00;64.80;;;;;;5008210;28;20242;-85
2022/11/17 13:53:31;;;;;;;3.77;1.10;;;13.10;62.30;;;;;;5014003;28;20263;-84
2022/11/17 13:56:38;;;;;;;2.80;1.00;;;13.20;57.30;;;;;;5039447;28;20164;-84
2022/11/17 13:59:38;;;;;;;5.07;1.60;;;13.30;57.10;;;;;;5038876;28;20169;-85
2022/11/17 14:05:18;;;;;;;2.17;0.90;;;13.50;51.50;;;;;;5057073;28;20232;-84
2022/11/17 14:07:59;;;;;;;2.97;1.20;;;13.50;50.00;;;;;;5042858;28;20165;-83
2022/11/17 14:11:20;;;;;;;4.10;1.20;;;13.50;47.60;;;;;;5057089;28;20158;-79
2022/11/17 14:14:26;;;;;;;3.80;1.00;;;13.60;43.40;;;;;;5026911;28;20163;-81
2022/11/17 14:17:36;;;;;;;;;;;;;;;;;;;;;
2022/11/17 14:20:52;;;;;;;2.80;1.13;;;13.60;39.20;;;;;;5115948;23;20247;-83
2022/11/17 14:23:41;;;;;;;3.37;1.17;;;13.80;37.80;;;;;;5019833;28;20175;-82
2022/11/17 14:26:26;;;;;;;3.73;1.10;;;13.60;15.60;;;;;;5017733;28;20202;-85
2022/11/17 14:29:01;;;;;;;2.27;0.80;;;13.60;8.60;;;;;;4999892;28;20179;-84
2022/11/17 14:31:32;;;;;;;3.73;1.00;;;13.60;11.20;;;;;;5001254;28;20162;-86
2022/11/17 14:34:20;;;;;;;5.40;1.30;;;13.50;18.40;;;;;;4999156;28;20175;-84
2022/11/17 14:39:35;;;;;;;2.90;1.00;;;13.30;18.60;;;;;;4884723;26;20566;-82
2022/11/17 14:42:01;;;;;;;3.20;1.00;;;13.30;19.90;;;;;;5160505;23;20210;-83
2022/11/17 14:47:43;;;;;;;2.60;0.80;;;13.10;34.10;;;;;;5027591;28;20207;-83
2022/11/17 14:52:47;;;;;;;3.10;1.00;;;12.90;42.60;;;;;;5109924;23;20241;-87
2022/11/17 14:55:32;;;;;;;2.53;1.00;;;13.10;38.40;;;;;;5047654;28;20207;-87
2022/11/17 14:58:08;;;;;;;2.73;0.80;;;13.10;31.60;;;;;;5049805;28;20175;-88
2022/11/17 15:00:34;;;;;;;3.07;1.20;;;13.10;32.00;;;;;;5052655;28;20166;-85
2022/11/17 15:02:59;;;;;;;2.43;0.90;;;13.10;32.40;;;;;;5033696;28;20202;-87
2022/11/17 15:05:28;;;;;;;4.93;1.10;;;13.00;33.60;;;;;;5051295;28;20217;-83
2022/11/17 15:07:57;;;;;;;2.70;1.10;;;13.10;31.60;;;;;;5039769;28;20179;-86
2022/11/17 15:11:14;;;;;;;1.77;0.90;;;13.00;30.50;;;;;;5055404;28;20181;-85